Map

Track Data

SID SEASON NUMBER BASIN SUBBASIN NAME ISO_TIME NATURE LAT LON WMO_WIND WMO_PRES WMO_AGENCY TRACK_TYPE DIST2LAND LANDFALL IFLAG USA_AGENCY USA_ATCF_ID USA_LAT USA_LON USA_RECORD USA_STATUS USA_WIND USA_PRES USA_SSHS USA_R34_NE USA_R34_SE USA_R34_SW USA_R34_NW USA_R50_NE USA_R50_SE USA_R50_SW USA_R50_NW USA_R64_NE USA_R64_SE USA_R64_SW USA_R64_NW USA_POCI USA_ROCI USA_RMW USA_EYE TOKYO_LAT TOKYO_LON TOKYO_GRADE TOKYO_WIND TOKYO_PRES TOKYO_R50_DIR TOKYO_R50_LONG TOKYO_R50_SHORT TOKYO_R30_DIR TOKYO_R30_LONG TOKYO_R30_SHORT TOKYO_LAND CMA_LAT CMA_LON CMA_CAT CMA_WIND CMA_PRES HKO_LAT HKO_LON HKO_CAT HKO_WIND HKO_PRES NEWDELHI_LAT NEWDELHI_LON NEWDELHI_GRADE NEWDELHI_WIND NEWDELHI_PRES NEWDELHI_CI NEWDELHI_DP NEWDELHI_POCI REUNION_LAT REUNION_LON REUNION_TYPE REUNION_WIND REUNION_PRES REUNION_TNUM REUNION_CI REUNION_RMW REUNION_R34_NE REUNION_R34_SE REUNION_R34_SW REUNION_R34_NW REUNION_R50_NE REUNION_R50_SE REUNION_R50_SW REUNION_R50_NW REUNION_R64_NE REUNION_R64_SE REUNION_R64_SW REUNION_R64_NW BOM_LAT BOM_LON BOM_TYPE BOM_WIND BOM_PRES BOM_TNUM BOM_CI BOM_RMW BOM_R34_NE BOM_R34_SE BOM_R34_SW BOM_R34_NW BOM_R50_NE BOM_R50_SE BOM_R50_SW BOM_R50_NW BOM_R64_NE BOM_R64_SE BOM_R64_SW BOM_R64_NW BOM_ROCI BOM_POCI BOM_EYE BOM_POS_METHOD BOM_PRES_METHOD NADI_LAT NADI_LON NADI_CAT NADI_WIND NADI_PRES WELLINGTON_LAT WELLINGTON_LON WELLINGTON_WIND WELLINGTON_PRES DS824_LAT DS824_LON DS824_STAGE DS824_WIND DS824_PRES TD9636_LAT TD9636_LON TD9636_STAGE TD9636_WIND TD9636_PRES TD9635_LAT TD9635_LON TD9635_WIND TD9635_PRES TD9635_ROCI NEUMANN_LAT NEUMANN_LON NEUMANN_CLASS NEUMANN_WIND NEUMANN_PRES MLC_LAT MLC_LON MLC_CLASS MLC_WIND MLC_PRES USA_GUST BOM_GUST BOM_GUST_PER REUNION_GUST REUNION_GUST_PER USA_SEAHGT USA_SEARAD_NE USA_SEARAD_SE USA_SEARAD_SW USA_SEARAD_NW STORM_SPEED STORM_DIR
2010293N16147 2010 73 WP MM CHABA 2010-10-20 06:00:00 NR 16.3000 146.500 main 2061 2050 O_____________ jtwc_wp WP162010 16.3000 146.500 DB 20 1006 -3 1008 90 15 15 259
2010293N16147 2010 73 WP MM CHABA 2010-10-20 09:00:00 NR 16.1630 145.737 main 2052 2041 P_____________ WP162010 16.1630 145.737 DB 20 1006 -3 1008 90 15 15 262
2010293N16147 2010 73 WP MM CHABA 2010-10-20 12:00:00 NR 16.1000 145.000 main 2046 2046 O_____________ jtwc_wp WP162010 16.1000 145.000 DB 20 1007 -3 1008 90 15 14 270
2010293N16147 2010 73 WP MM CHABA 2010-10-20 15:00:00 NR 16.1623 144.313 main 2065 2014 P_____________ WP162010 16.1623 144.313 DB 20 1005 -3 1008 105 30 13 279
2010293N16147 2010 73 WP MM CHABA 2010-10-20 18:00:00 NR 16.3000 143.700 main 2014 1964 O_____________ jtwc_wp WP162010 16.3000 143.700 DB 20 1004 -3 1008 120 45 11 284
2010293N16147 2010 73 WP MM CHABA 2010-10-20 21:00:00 NR 16.4423 143.170 main 1964 1916 P_____________ WP162010 16.4423 143.170 DB 20 1004 -3 1008 135 45 10 287
2010293N16147 2010 73 WP MM CHABA 2010-10-21 00:00:00 NR 16.6000 142.700 main 1916 1877 O_____________ jtwc_wp WP162010 16.6000 142.700 DB 20 1005 -3 1008 150 45 9 290
2010293N16147 2010 73 WP MM CHABA 2010-10-21 03:00:00 NR 16.7574 142.242 main 1869 1831 P_____________ WP162010 16.7574 142.242 DB 22 1004 -3 1008 142 42 9 289
2010293N16147 2010 73 WP MM CHABA 2010-10-21 06:00:00 TS 16.9000 141.800 main 1831 1793 O_____________ jtwc_wp WP162010 16.9000 141.800 TD 25 1004 -1 1009 135 40 9 287
2010293N16147 2010 73 WP MM CHABA 2010-10-21 09:00:00 TS 17.0224 141.350 main 1793 1745 P_____________ WP162010 17.0224 141.350 TD 25 1004 -1 1009 135 40 9 283
2010293N16147 2010 73 WP MM CHABA 2010-10-21 12:00:00 TS 17.1000 140.900 main 1745 1704 O_____________ jtwc_wp WP162010 17.1000 140.900 TD 25 1004 -1 1009 135 40 9 276
2010293N16147 2010 73 WP MM CHABA 2010-10-21 15:00:00 TS 17.1149 140.450 main 1694 1653 P_____________ WP162010 17.1149 140.450 TD 25 1004 -1 1008 142 42 9 270
2010293N16147 2010 73 WP MM CHABA 2010-10-21 18:00:00 TS 17.1000 140.000 main 1653 1612 O_____________ jtwc_wp WP162010 17.1000 140.000 TD 25 1004 -1 1008 150 45 8 270
2010293N16147 2010 73 WP MM CHABA 2010-10-21 21:00:00 TS 17.1148 139.565 main 1612 1562 P_____________ WP162010 17.1148 139.565 TD 22 1005 -1 1008 150 45 9 270
2010293N16147 2010 73 WP MM CHABA 2010-10-22 00:00:00 NR 17.1000 139.100 main 1562 1508 O_____________ jtwc_wp WP162010 17.1000 139.100 DB 20 1007 -3 1008 150 45 10 265
2010293N16147 2010 73 WP MM CHABA 2010-10-22 03:00:00 NR 17.0225 138.557 main 1508 1444 P_____________ WP162010 17.0225 138.557 DB 20 1007 -3 1008 150 45 11 259
2010293N16147 2010 73 WP MM CHABA 2010-10-22 06:00:00 NR 16.9000 138.000 main 1444 1390 O_____________ jtwc_wp WP162010 16.9000 138.000 DB 20 1007 -3 1008 150 45 10 256
2010293N16147 2010 73 WP MM CHABA 2010-10-22 09:00:00 NR 16.7648 137.500 main 1390 1343 P_____________ WP162010 16.7648 137.500 DB 20 1007 -3 1008 150 47 9 253
2010293N16147 2010 73 WP MM CHABA 2010-10-22 12:00:00 NR 16.6400 137.100 main 1343 1303 O__O__________ jtwc_wp WP162010 16.6000 137.000 DB 20 1007 -3 1008 150 50 16.8000 137.500 TD 25 1002 8 258
2010293N16147 2010 73 WP MM CHABA 2010-10-22 15:00:00 NR 16.5974 136.647 main 1293 1249 P__P__________ WP162010 16.4000 136.450 DB 20 1007 -3 1008 150 47 16.9924 137.041 TD 25 1002 9 264
2010293N16147 2010 73 WP MM CHABA 2010-10-22 18:00:00 NR 16.5429 136.157 main 1249 1185 O__O__________ jtwc_wp WP162010 16.2000 135.900 DB 20 1007 -3 1008 150 45 17.0000 136.500 TD 25 1002 10 257
2010293N16147 2010 73 WP MM CHABA 2010-10-22 21:00:00 NR 16.3764 135.616 main 1185 1123 P__P__________ WP162010 16.0424 135.378 DB 20 1007 -3 1006 150 45 16.7103 135.854 TD 25 1002 11 246
2010293N16147 2010 73 WP MM CHABA 2010-10-23 00:00:00 NR 16.1000 135.100 main 1123 1085 O__O__________ jtwc_wp WP162010 15.9000 134.900 DB 20 1007 -3 1005 150 45 16.3000 135.300 TD 25 1002 10 238
2010293N16147 2010 73 WP MM CHABA 2010-10-23 03:00:00 NR 15.8598 134.755 main 1085 1047 P__P__________ WP162010 15.7350 134.455 DB 20 1007 -3 1005 150 45 15.9847 135.055 TD 25 1002 7 232
2010293N16147 2010 73 WP MM CHABA 2010-10-23 06:00:00 NR 15.6500 134.500 main 1047 1019 O__O__________ jtwc_wp WP162010 15.6000 134.100 DB 20 1007 -3 1005 150 45 15.7000 134.900 TD 25 1002 6 232
2010293N16147 2010 73 WP MM CHABA 2010-10-23 09:00:00 NR 15.4737 134.246 main 1009 985 P__P__________ WP162010 15.5274 133.870 DB 22 1005 -3 1005 150 45 15.4200 134.622 TD 25 1002 6 238
2010293N16147 2010 73 WP MM CHABA 2010-10-23 12:00:00 TS 15.3500 134.000 main 985 951 O__O__________ jtwc_wp WP162010 15.5000 133.700 TD 25 1004 -1 1005 150 45 15.2000 134.300 TD 25 1002 5 248
2010293N16147 2010 73 WP MM CHABA 2010-10-23 15:00:00 TS 15.2738 133.721 main 951 927 P__P__________ WP162010 15.4925 133.500 TD 25 1004 -1 1004 142 40 15.0550 133.943 TD 27 1001 5 253
2010293N16147 2010 73 WP MM CHABA 2010-10-23 18:00:00 TS 15.2000 133.480 1004 tokyo main 927 907 OOOO__________ jtwc_wp WP162010 15.5000 133.300 TD 25 1004 -1 1004 135 35 15.0000 133.600 2 1004 0 0 0 15.0000 133.600 1 29 1002 15.0000 133.600 TD 30 1000 5 258
2010293N16147 2010 73 WP MM CHABA 2010-10-23 21:00:00 TS 15.1758 133.263 main 907 887 PPPP__________ WP162010 15.4850 133.107 TD 25 1004 -1 1004 135 35 15.0376 133.345 2 1004 0 0 15.0376 133.345 1 29 1002 15.0049 133.335 TD 30 1000 4 272
2010293N16147 2010 73 WP MM CHABA 2010-10-24 00:00:00 TS 15.2143 133.043 1004 tokyo main 877 861 OOOO__________ jtwc_wp WP162010 15.5000 132.900 TD 25 1004 -1 1004 135 35 15.1000 133.100 2 1004 0 0 0 15.1000 133.100 1 29 1002 15.1000 133.100 TD 30 1000 5 289
2010293N16147 2010 73 WP MM CHABA 2010-10-24 03:00:00 TS 15.3218 132.817 main 861 846 PPPP__________ WP162010 15.5774 132.672 TD 27 1002 -1 1004 140 35 15.2124 132.865 2 1003 0 0 15.2124 132.865 1 29 1001 15.2849 132.865 TD 30 999 6 301
2010293N16147 2010 73 WP MM CHABA 2010-10-24 06:00:00 TS 15.5000 132.550 1002 tokyo main 851 822 OOOO__________ jtwc_wp WP162010 15.7000 132.400 TD 30 1000 -1 1004 145 35 15.4000 132.600 2 1002 0 0 0 15.4000 132.600 1 29 1000 15.5000 132.600 TD 30 998 7 303
2010293N16147 2010 73 WP MM CHABA 2010-10-24 09:00:00 TS 15.6988 132.209 main 822 805 PPPP__________ WP162010 15.8350 132.057 TD 30 1000 -1 1004 150 35 15.6625 132.265 2 1001 0 0 15.6625 132.265 1 31 999 15.6351 132.250 TD 30 998 8 304
2010293N16147 2010 73 WP MM CHABA 2010-10-24 12:00:00 TS 15.9500 131.850 1000 tokyo main 801 786 OOOO__________ jtwc_wp WP162010 16.0000 131.700 TD 30 1000 -1 1004 155 35 16.0000 131.900 2 1000 0 0 0 16.0000 131.900 2 34 998 15.8000 131.900 TD 30 998 9 311
2010293N16147 2010 73 WP MM CHABA 2010-10-24 15:00:00 TS 16.2825 131.504 main 793 784 PPPP__________ WP162010 16.1850 131.370 TD 32 998 -1 1005 157 30 16.4376 131.513 2 998 0 0 16.4301 131.513 2 36 996 16.0775 131.620 TD 32 996 9 317
2010293N16147 2010 73 WP MM CHABA 2010-10-24 18:00:00 TS 16.6000 131.225 35 996 tokyo main 787 784 OOOO__________ jtwc_wp WP162010 16.4000 131.100 TS 35 996 0 1006 160 25 16.8000 131.200 3 35 996 0 3 90 70 0 16.8000 131.200 2 38 995 16.4000 131.400 TS 35 995 6 322
2010293N16147 2010 73 WP MM CHABA 2010-10-24 21:00:00 TS 16.7880 131.090 main 788 783 PPPP__________ WP162010 16.6349 130.935 TS 40 992 0 1006 167 25 16.8723 131.085 3 40 994 0 3 90 70 16.9298 131.085 2 41 995 16.7149 131.257 TS 37 993 4 326
2010293N16147 2010 73 WP MM CHABA 2010-10-25 00:00:00 TS 16.9500 130.975 45 992 tokyo main 788 773 OOOO__________ jtwc_wp WP162010 16.9000 130.800 TS 45 989 0 40 45 55 45 1006 175 25 16.9000 131.000 3 45 992 0 3 90 70 0 17.0000 131.000 2 44 995 17.0000 131.100 TS 40 992 55 5 320
2010293N16147 2010 73 WP MM CHABA 2010-10-25 03:00:00 TS 17.1763 130.744 main 769 761 PPPP__________ WP162010 17.1925 130.615 TS 50 985 0 50 47 52 50 7 7 7 7 1006 180 20 17.1275 130.773 3 45 991 0 3 90 70 17.1775 130.773 2 44 992 17.2076 130.815 TS 42 990 7 315
2010293N16147 2010 73 WP MM CHABA 2010-10-25 06:00:00 TS 17.4250 130.475 45 990 tokyo main 761 746 OOOO__________ jtwc_wp WP162010 17.5000 130.400 TS 55 982 0 60 50 50 55 15 15 15 15 1006 185 15 17.4000 130.500 3 45 990 0 3 90 70 0 17.4000 130.500 2 44 990 17.4000 130.500 TS 45 988 7 314
2010293N16147 2010 73 WP MM CHABA 2010-10-25 09:00:00 TS 17.6544 130.223 main 752 741 PPPP__________ WP162010 17.7925 130.157 TS 57 980 0 62 52 52 57 17 15 15 17 1006 205 15 17.5775 130.250 3 50 987 0 3 110 85 17.6200 130.242 2 51 985 17.6274 130.242 TS 50 984 7 316
2010293N16147 2010 73 WP MM CHABA 2010-10-25 12:00:00 TS 17.9250 129.975 55 985 tokyo main 747 744 OOOO__________ jtwc_wp WP162010 18.1000 129.900 TS 60 978 0 65 55 55 60 20 15 15 20 1006 225 15 17.8000 130.000 4 55 985 9 40 40 3 130 100 0 17.9000 130.000 3 58 980 17.9000 130.000 STS 55 980 8 324
2010293N16147 2010 73 WP MM CHABA 2010-10-25 15:00:00 TS 18.2850 129.734 main 750 749 PPPP__________ WP162010 18.4425 129.635 TS 62 976 0 75 60 57 72 20 15 15 20 1006 225 17 18.1849 129.758 4 57 982 9 45 45 3 145 110 18.2774 129.800 3 61 977 18.2350 129.743 STS 57 977 9 329
2010293N16147 2010 73 WP MM CHABA 2010-10-25 18:00:00 TS 18.6750 129.500 60 980 tokyo main 759 739 OOOO__________ jtwc_wp WP162010 18.8000 129.400 TY 65 974 1 85 65 60 85 20 15 15 20 1006 225 20 18.6000 129.500 4 60 980 9 50 50 3 160 120 0 18.7000 129.600 4 64 975 18.6000 129.500 STS 60 975 9 330
2010293N16147 2010 73 WP MM CHABA 2010-10-25 21:00:00 TS 19.0456 129.273 main 740 721 PPPP__________ WP162010 19.1724 129.250 TY 67 972 1 87 67 65 87 22 17 17 22 1006 227 17 18.9226 129.185 4 62 977 9 55 55 3 180 125 19.1300 129.358 4 66 972 18.9574 129.300 STS 62 972 8 329
2010293N16147 2010 73 WP MM CHABA 2010-10-26 00:00:00 TS 19.3750 129.050 65 975 tokyo main 724 696 OOOO__________ jtwc_wp WP162010 19.5000 129.100 TY 70 970 1 90 70 70 90 25 20 20 25 15 15 15 15 1006 230 15 19.2000 128.900 5 65 975 9 60 60 3 200 130 0 19.5000 129.100 4 68 970 19.3000 129.100 T 65 970 7 324
2010293N16147 2010 73 WP MM CHABA 2010-10-26 03:00:00 TS 19.6406 128.821 main 696 680 PPPP__________ WP162010 19.7300 128.857 TY 70 970 1 95 72 72 92 32 27 27 32 20 17 17 20 1005 230 20 19.4649 128.735 5 65 975 9 60 60 3 200 130 19.7375 128.842 4 68 970 19.6300 128.850 T 65 970 6 318
2010293N16147 2010 73 WP MM CHABA 2010-10-26 06:00:00 TS 19.8500 128.600 65 975 tokyo main 682 665 OOOO__________ jtwc_wp WP162010 19.9000 128.600 TY 70 970 1 100 75 75 95 40 35 35 40 25 20 20 25 1005 230 25 19.7000 128.600 5 65 975 9 60 60 3 200 130 0 19.9000 128.600 4 68 970 19.9000 128.600 T 65 970 6 313
2010293N16147 2010 73 WP MM CHABA 2010-10-26 09:00:00 TS 20.0256 128.389 main 665 647 PPPP__________ WP162010 20.0650 128.385 TY 75 966 1 110 100 92 102 45 42 37 42 27 25 22 27 1005 230 25 19.9075 128.400 5 67 972 9 60 60 3 200 130 20.0575 128.385 4 70 967 20.0725 128.385 T 67 967 5 311
2010293N16147 2010 73 WP MM CHABA 2010-10-26 12:00:00 TS 20.1750 128.200 70 970 tokyo main 651 634 OOOO__________ jtwc_wp WP162010 20.2000 128.200 TY 80 963 1 120 125 110 110 50 50 40 45 30 30 25 30 1005 230 25 20.1000 128.200 5 70 970 9 60 60 3 200 130 0 20.2000 128.200 4 73 965 20.2000 128.200 T 70 965 5 311
2010293N16147 2010 73 WP MM CHABA 2010-10-26 15:00:00 TS 20.3250 128.022 main 634 628 PPPP__________ WP162010 20.2850 128.027 TY 85 959 2 120 122 110 115 50 50 42 47 30 30 27 30 1005 235 25 20.3150 128.020 5 70 967 9 60 60 3 200 140 20.3500 128.020 4 73 965 20.3500 128.020 T 70 965 4 317
2010293N16147 2010 73 WP MM CHABA 2010-10-26 18:00:00 TS 20.4750 127.900 70 965 tokyo main 632 632 OOOO__________ jtwc_wp WP162010 20.4000 127.900 TY 90 956 2 120 120 110 120 50 50 45 50 30 30 30 30 1005 240 25 20.5000 127.900 5 70 965 9 60 60 3 200 150 0 20.5000 127.900 4 73 965 20.5000 127.900 T 70 965 3 332
2010293N16147 2010 73 WP MM CHABA 2010-10-26 21:00:00 TS 20.5944 127.867 main 636 636 PPPP__________ WP162010 20.6125 127.820 TY 92 954 2 125 125 110 125 57 57 55 57 30 30 30 30 1005 250 25 20.5550 127.877 5 72 962 9 65 65 3 200 150 20.6050 127.885 4 75 962 20.6050 127.885 T 72 962 3 0
2010293N16147 2010 73 WP MM CHABA 2010-10-27 00:00:00 TS 20.8000 127.875 75 960 tokyo main 645 645 OOOO__________ jtwc_wp WP162010 20.9000 127.800 TY 95 952 2 130 130 110 130 65 65 65 65 30 30 30 30 1005 260 25 10 20.7000 127.900 5 75 960 9 70 70 3 200 150 0 20.8000 127.900 4 77 960 20.8000 127.900 T 75 960 6 0
2010293N16147 2010 73 WP MM CHABA 2010-10-27 03:00:00 TS 21.2075 127.850 main 655 655 PPPP__________ WP162010 21.2275 127.835 TY 97 950 3 142 140 127 140 65 65 60 65 30 32 32 32 1005 260 20 21.1625 127.893 5 77 957 9 70 70 3 200 150 21.2200 127.835 4 82 955 21.2200 127.835 T 80 955 9 0
2010293N16147 2010 73 WP MM CHABA 2010-10-27 06:00:00 TS 21.6750 127.850 80 955 tokyo main 686 673 OOOO__________ jtwc_wp WP162010 21.6000 127.900 TY 100 948 3 155 150 145 150 65 65 55 65 30 35 35 35 1005 260 15 10 21.7000 127.900 5 80 955 9 70 70 3 200 150 0 21.7000 127.800 5 87 950 21.7000 127.800 ST 85 950 8 3
2010293N16147 2010 73 WP MM CHABA 2010-10-27 09:00:00 TS 22.0356 127.901 main 673 663 PPPP__________ WP162010 21.9850 127.935 TY 105 944 3 157 160 150 152 72 70 65 75 37 37 37 40 1004 262 15 22.0575 127.928 5 82 950 9 75 75 3 200 165 22.0500 127.870 5 92 947 22.0500 127.870 ST 87 947 7 11
2010293N16147 2010 73 WP MM CHABA 2010-10-27 12:00:00 TS 22.4000 128.000 85 945 tokyo main 664 656 OOOO__________ jtwc_wp WP162010 22.4000 128.000 TY 110 941 3 160 170 155 155 80 75 75 85 45 40 40 45 1004 265 15 10 22.4000 128.000 5 85 945 9 80 80 3 200 180 0 22.4000 128.000 5 97 945 22.4000 128.000 ST 90 945 8 15
2010293N16147 2010 73 WP MM CHABA 2010-10-27 15:00:00 TS 22.8350 128.139 main 659 655 PPPP__________ WP162010 22.8425 128.135 TY 110 941 3 167 170 160 170 80 75 75 82 45 40 40 45 1004 265 15 22.8275 128.135 5 85 945 9 80 80 3 200 180 22.8350 128.143 5 97 942 22.8350 128.143 ST 90 945 9 17
2010293N16147 2010 73 WP MM CHABA 2010-10-27 18:00:00 TS 23.3000 128.300 85 945 tokyo main 663 659 OOOO__________ jtwc_wp WP162010 23.3000 128.300 TY 110 941 3 175 170 165 185 80 75 75 80 45 40 40 45 1004 265 15 20 23.3000 128.300 5 85 945 9 80 80 3 200 180 0 23.3000 128.300 5 97 940 23.3000 128.300 ST 90 945 10 16
2010293N16147 2010 73 WP MM CHABA 2010-10-27 21:00:00 TS 23.7911 128.433 main 661 661 PPPP__________ WP162010 23.7649 128.428 TY 112 939 3 180 177 170 185 80 77 75 80 45 40 40 45 1004 260 15 23.8545 128.440 5 87 940 9 85 85 3 200 180 23.7724 128.435 5 97 940 23.7724 128.428 ST 90 945 10 17
2010293N16147 2010 73 WP MM CHABA 2010-10-28 00:00:00 TS 24.2250 128.600 90 935 tokyo main 672 671 OOOO__________ jtwc_wp WP162010 24.2000 128.600 TY 115 937 4 185 185 175 185 80 80 75 80 45 40 40 45 1004 255 15 40 24.3000 128.600 5 90 935 9 90 90 3 200 180 0 24.2000 128.600 5 97 940 24.2000 128.600 ST 90 945 8 27
2010293N16147 2010 73 WP MM CHABA 2010-10-28 03:00:00 TS 24.5180 128.829 90 935 tokyo main 688 688 POPP__________ WP162010 24.5648 128.848 TY 115 937 4 185 185 175 185 80 80 75 80 45 40 40 45 1004 257 15 24.5000 128.800 5 90 935 9 90 90 3 200 180 0 24.4998 128.806 5 97 940 24.5074 128.863 ST 92 942 8 41
2010293N16147 2010 73 WP MM CHABA 2010-10-28 06:00:00 TS 24.8250 129.175 95 930 tokyo main 707 656 OOOO__________ jtwc_wp WP162010 24.9000 129.200 TY 115 937 4 185 185 175 185 80 80 75 80 45 40 40 45 1004 260 15 35 24.8000 129.200 5 95 930 9 90 90 3 200 180 0 24.8000 129.100 5 97 940 24.8000 129.200 ST 95 940 10 45
2010293N16147 2010 73 WP MM CHABA 2010-10-28 09:00:00 TS 25.2195 129.603 95 930 tokyo main 656 605 POPP__________ WP162010 25.2429 129.700 TY 112 939 3 182 182 172 182 80 80 75 80 45 40 40 45 1004 257 15 25.2000 129.600 5 95 930 9 90 90 3 200 180 0 25.2502 129.527 5 97 940 25.1850 129.585 ST 92 942 11 46
2010293N16147 2010 73 WP MM CHABA 2010-10-28 12:00:00 TS 25.6250 130.075 95 935 tokyo main 605 558 OOOO__________ jtwc_wp WP162010 25.6000 130.200 TY 110 941 3 180 180 170 180 80 80 75 80 45 40 40 45 1004 255 15 10 25.6000 130.100 5 95 935 9 90 90 2 180 160 0 25.7000 130.000 5 97 940 25.6000 130.000 ST 90 945 11 45
2010293N16147 2010 73 WP MM CHABA 2010-10-28 15:00:00 TS 25.9998 130.456 90 940 tokyo main 558 524 POPP__________ WP162010 25.9996 130.516 TY 107 942 3 185 185 170 180 80 80 75 80 45 42 40 45 1004 252 15 26.0000 130.500 5 90 940 9 80 80 2 180 160 0 25.9998 130.408 5 92 945 25.9999 130.400 ST 85 947 10 43
2010293N16147 2010 73 WP MM CHABA 2010-10-28 18:00:00 TS 26.3500 130.825 85 940 tokyo main 513 471 OOOO__________ jtwc_wp WP162010 26.4000 130.800 TY 105 944 3 190 190 170 180 80 80 75 80 45 45 40 45 1004 250 15 26.3000 130.900 5 85 940 9 80 80 2 180 160 0 26.3000 130.800 5 87 950 26.4000 130.800 T 80 950 10 41
2010293N16147 2010 73 WP MM CHABA 2010-10-28 21:00:00 TS 26.7810 131.224 85 940 tokyo main 471 433 POPP__________ WP162010 26.7272 131.156 TY 102 946 3 185 187 170 182 75 75 67 75 40 40 35 37 1004 235 17 26.9000 131.400 5 85 940 9 70 70 2 180 140 0 26.7121 131.171 5 82 955 26.7846 131.171 T 77 952 11 40
2010293N16147 2010 73 WP MM CHABA 2010-10-29 00:00:00 TS 27.1750 131.600 80 945 tokyo main 433 399 OOOO__________ jtwc_wp WP162010 27.1000 131.600 TY 100 948 3 180 185 170 185 70 70 60 70 35 35 30 30 1004 220 20 27.2000 131.600 5 80 945 9 70 70 2 170 130 0 27.2000 131.600 4 77 960 27.2000 131.600 T 75 955 12 42
2010293N16147 2010 73 WP MM CHABA 2010-10-29 03:00:00 TS 27.6656 132.122 75 950 tokyo main 392 367 POPP__________ WP162010 27.6200 132.162 TY 95 952 2 180 185 170 185 70 70 60 70 35 35 30 30 1004 220 20 27.6000 132.000 5 75 950 9 60 60 2 170 130 0 27.7500 132.162 4 72 965 27.6925 132.162 T 70 960 15 45
2010293N16147 2010 73 WP MM CHABA 2010-10-29 06:00:00 TS 28.2250 132.800 70 955 tokyo main 372 361 OOOO__________ jtwc_wp WP162010 28.2000 132.800 TY 90 956 2 180 185 170 185 70 70 60 70 35 35 30 30 1004 220 20 28.2000 132.800 5 70 955 9 60 60 2 160 130 0 28.3000 132.800 4 68 970 28.2000 132.800 T 65 965 15 49
2010293N16147 2010 73 WP MM CHABA 2010-10-29 09:00:00 TS 28.6684 133.418 70 955 tokyo main 357 353 POPP__________ WP162010 28.7345 133.421 TY 90 956 2 180 185 170 185 70 70 60 70 35 35 30 30 1004 215 20 28.6000 133.400 5 70 955 9 60 60 2 160 130 0 28.7270 133.422 4 68 970 28.6121 133.429 T 65 965 15 50
2010293N16147 2010 73 WP MM CHABA 2010-10-29 12:00:00 TS 29.1750 134.100 70 960 tokyo main 356 356 OOOO__________ jtwc_wp WP162010 29.3000 134.100 TY 90 956 2 180 185 170 185 70 70 60 70 35 35 30 30 1004 210 20 29.1000 134.100 5 70 960 9 50 50 2 160 130 0 29.2000 134.100 4 68 970 29.1000 134.100 T 65 965 17 46
2010293N16147 2010 73 WP MM CHABA 2010-10-29 15:00:00 TS 29.8542 134.844 70 960 tokyo main 355 312 POPP__________ WP162010 29.9273 134.871 TY 85 959 2 190 192 180 192 72 72 62 72 30 30 27 27 1004 195 20 29.8000 134.800 5 70 960 9 50 50 2 180 150 0 29.8699 134.877 4 68 970 29.8197 134.827 T 62 967 20 43
2010293N16147 2010 73 WP MM CHABA 2010-10-29 18:00:00 TS 30.6000 135.650 65 965 tokyo main 312 249 OOOO__________ jtwc_wp WP162010 30.6000 135.700 TY 80 963 1 200 200 190 200 75 75 65 75 25 25 25 25 1004 180 20 30.6000 135.600 5 65 965 9 50 50 2 200 130 0 30.6000 135.700 4 68 970 30.6000 135.600 STS 60 970 20 44
2010293N16147 2010 73 WP MM CHABA 2010-10-29 21:00:00 TS 31.2649 136.442 65 970 tokyo main 240 212 POPP__________ WP162010 31.2840 136.514 TY 77 965 1 205 195 182 190 75 75 65 75 27 27 27 27 1004 195 17 31.3000 136.400 5 65 970 9 40 40 2 220 130 0 31.2341 136.480 4 68 972 31.2417 136.372 STS 60 972 19 46
2010293N16147 2010 73 WP MM CHABA 2010-10-30 00:00:00 TS 31.9250 137.275 65 975 tokyo main 218 208 OOOO__________ jtwc_wp WP162010 32.0000 137.400 TY 75 967 1 210 190 175 180 75 75 65 75 30 30 30 30 1005 210 15 31.9000 137.200 5 65 975 9 40 40 2 250 100 0 31.9000 137.300 4 68 975 31.9000 137.200 STS 60 975 21 46
2010293N16147 2010 73 WP MM CHABA 2010-10-30 03:00:00 TS 32.7328 138.213 65 975 tokyo main 211 128 POPP__________ WP162010 32.7187 138.378 TY 67 972 1 210 190 175 180 75 75 65 75 15 15 15 15 1005 266 30 32.8000 138.200 5 65 975 9 30 30 2 230 100 0 32.7064 138.190 4 63 977 32.7062 138.083 STS 60 975 23 46
2010293N16147 2010 73 WP MM CHABA 2010-10-30 06:00:00 MX 33.5000 139.214 65 980 tokyo main 128 93 OOOO__________ jtwc_wp WP162010 33.5000 139.500 EX 60 978 -4 210 190 175 180 75 75 65 75 1006 322 45 33.5000 139.100 5 65 980 9 30 30 2 200 100 0 33.5000 139.200 3 58 980 33.5000 139.100 STS 60 975 23 52
2010293N16147 2010 73 WP MM CHABA 2010-10-30 09:00:00 MX 34.1619 140.403 65 985 tokyo main 90 90 POPP__________ WP162010 34.3762 140.792 EX 52 983 -4 210 190 175 180 37 37 32 37 1006 321 52 34.1000 140.300 5 65 985 9 30 30 1 180 100 0 34.1223 140.365 3 56 982 34.1508 140.295 STS 57 980 24 58
2010293N16147 2010 73 WP MM CHABA 2010-10-30 12:00:00 MX 34.7600 141.660 60 990 tokyo main 123 120 OOOO__________ jtwc_wp WP162010 35.3000 142.200 EX 45 989 -4 210 190 175 180 1006 320 60 34.7000 141.600 4 60 990 9 30 30 1 160 100 0 34.7000 141.600 3 54 985 34.7000 141.600 STS 55 985 23 59
2010293N16147 2010 73 WP MM CHABA 2010-10-30 15:00:00 TS 35.3319 142.750 55 994 tokyo main 177 174 _OP___________ WP162010 EX -4 35.3000 142.700 4 55 994 9 30 30 1 160 100 0 35.3638 142.801 3 51 991 STS 23 57
2010293N16147 2010 73 WP MM CHABA 2010-10-30 18:00:00 ET 36.0000 144.000 998 tokyo main 280 280 _OO___________ 36.0000 144.000 6 998 0 0 0 36.0000 144.000 9 48 998 24 59
2010293N16147 2010 73 WP MM CHABA 2010-10-30 21:00:00 ET 36.5843 145.333 main 384 384 _PP___________ 36.6161 145.421 6 1001 0 0 36.5525 145.245 9 48 1001 23 63
2010293N16147 2010 73 WP MM CHABA 2010-10-31 00:00:00 ET 37.0500 146.550 1004 tokyo main 466 462 _OO___________ 37.1000 146.700 6 1004 0 0 0 37.0000 146.400 9 48 1004 19 65
2010293N16147 2010 73 WP MM CHABA 2010-10-31 03:00:00 ET 37.3781 147.464 main 523 523 _PP___________ 37.4349 147.551 6 1007 0 0 37.3212 147.377 9 43 1007 14 65
2010293N16147 2010 73 WP MM CHABA 2010-10-31 06:00:00 ET 37.6571 148.200 1010 tokyo main 565 565 _OO___________ 37.7000 148.200 6 1010 0 0 0 37.6000 148.200 9 38 1010 13 63
2010293N16147 2010 73 WP MM CHABA 2010-10-31 09:00:00 ET 37.9671 148.948 main 611 611 _PP___________ 37.9852 148.960 6 1011 0 0 37.9309 148.923 9 36 1011 13 60
2010293N16147 2010 73 WP MM CHABA 2010-10-31 12:00:00 ET 38.3000 149.600 1012 tokyo main 644 626 _OO___________ 38.3000 149.600 6 1012 0 0 0 38.3000 149.600 9 34 1012 11 49
2010293N16147 2010 73 WP MM CHABA 2010-10-31 15:00:00 ET 38.6843 150.011 main 626 606 _P____________ 38.6843 150.011 6 1012 0 0 9 10 34
2010293N16147 2010 73 WP MM CHABA 2010-10-31 18:00:00 ET 39.1000 150.300 1012 tokyo main 606 590 _O____________ 39.1000 150.300 6 1012 0 0 0 9 29
2010293N16147 2010 73 WP MM CHABA 2010-10-31 21:00:00 ET 39.5054 150.592 main 590 578 _P____________ 39.5054 150.592 6 1012 0 0 9 30
2010293N16147 2010 73 WP MM CHABA 2010-11-01 00:00:00 ET 39.9000 150.900 1012 tokyo main 578 _O____________ 39.9000 150.900 6 1012 0 0 0 9 31

Digital Typhoon Data and Search

About IBTrACS Database

This database is a web-friendly format of International Best Track Archive for Climate Stewardship (IBTrACS), a global best track data archive curated by NOAA dating back to 1842.

Updated: 2021-10-08